createdAt,value
2018-05-24T00:02:20.605Z,101193.77
2018-05-24T00:04:52.382Z,101195.38
2018-05-24T00:07:24.169Z,101204.16
2018-05-24T00:09:55.989Z,101197.57
2018-05-24T00:12:27.487Z,101199.52
2018-05-24T00:19:07.536Z,101214.23
2018-05-24T00:21:39.293Z,101211.76
2018-05-24T00:24:11.078Z,101215.30
2018-05-24T00:26:42.855Z,101218.33
2018-05-24T00:29:14.607Z,101211.70
2018-05-24T00:31:47.002Z,101214.80
2018-05-24T00:34:19.162Z,101226.32
2018-05-24T00:36:52.721Z,101227.75
2018-05-24T00:39:25.544Z,101217.35
2018-05-24T00:41:59.155Z,101217.70
2018-05-24T00:44:32.023Z,101218.81
2018-05-24T00:47:03.661Z,101222.32
2018-05-24T00:49:35.647Z,101229.87
2018-05-24T00:52:07.025Z,101228.77
2018-05-24T00:54:39.353Z,101224.28
2018-05-24T00:57:10.953Z,101225.88
2018-05-24T00:59:43.032Z,101224.86
2018-05-24T01:02:15.091Z,101228.84
2018-05-24T01:04:46.591Z,101228.61
2018-05-24T01:07:18.041Z,101227.41
2018-05-24T01:09:50.035Z,101233.26
2018-05-24T01:12:21.542Z,101231.86
2018-05-24T01:16:58.928Z,101233.58
2018-05-24T01:19:32.034Z,101237.94
2018-05-24T01:22:04.027Z,101241.25
2018-05-24T01:24:35.709Z,101239.91
2018-05-24T01:28:45.916Z,101241.73
2018-05-24T01:31:18.491Z,101246.23
2018-05-24T01:33:50.066Z,101245.07
2018-05-24T01:36:21.645Z,101243.63
2018-05-24T01:38:53.410Z,101247.56
2018-05-24T01:49:21.803Z,101247.04
2018-05-24T01:51:58.865Z,101250.80
2018-05-24T01:54:31.575Z,101249.35
2018-05-24T01:57:04.289Z,101251.88
2018-05-24T01:59:40.340Z,101248.78
2018-05-24T02:02:18.770Z,101243.98
2018-05-24T02:04:52.424Z,101245.31
2018-05-24T02:07:25.489Z,101249.48
2018-05-24T02:09:57.314Z,101250.95
2018-05-24T02:12:30.554Z,101252.58
2018-05-24T02:15:02.056Z,101254.02
2018-05-24T02:17:33.961Z,101258.75
2018-05-24T02:20:05.543Z,101262.33
2018-05-24T02:22:37.091Z,101275.24
2018-05-24T02:25:08.559Z,101273.47
2018-05-24T02:27:40.112Z,101267.27
2018-05-24T02:30:11.772Z,101265.95
2018-05-24T02:32:42.339Z,101266.41
2018-05-24T02:35:14.328Z,101265.91
2018-05-24T02:37:45.939Z,101271.13
2018-05-24T02:40:17.441Z,101279.36
2018-05-24T02:42:49.039Z,101289.52
2018-05-24T02:45:20.559Z,101294.06
2018-05-24T02:47:52.211Z,101302.95
2018-05-24T02:50:23.531Z,101306.44
2018-05-24T02:52:54.960Z,101313.31
2018-05-24T02:55:27.073Z,101320.08
2018-05-24T02:57:58.799Z,101318.95
2018-05-24T03:00:30.531Z,101318.85
2018-05-24T03:03:02.544Z,101322.63
2018-05-24T03:05:34.399Z,101332.67
2018-05-24T03:08:05.976Z,101335.89
2018-05-24T03:10:37.481Z,101336.31
2018-05-24T03:14:44.649Z,101337.93
2018-05-24T03:17:16.417Z,101343.98
2018-05-24T03:19:48.403Z,101342.61
2018-05-24T03:22:20.340Z,101348.06
2018-05-24T03:24:52.079Z,101341.52
2018-05-24T03:27:23.935Z,101350.19
2018-05-24T03:29:55.924Z,101357.30
2018-05-24T03:32:27.538Z,101361.25
2018-05-24T03:35:00.329Z,101370.23
2018-05-24T03:37:31.946Z,101363.05
2018-05-24T03:40:03.481Z,101367.48
2018-05-24T03:42:35.428Z,101360.72
2018-05-24T03:45:06.967Z,101365.64
2018-05-24T03:47:38.987Z,101377.36
2018-05-24T03:50:10.819Z,101371.16
2018-05-24T03:52:42.775Z,101375.59
2018-05-24T03:55:14.594Z,101380.98
2018-05-24T03:58:09.882Z,101380.24
2018-05-24T04:00:52.770Z,101386.42
2018-05-24T04:03:35.463Z,101389.19
2018-05-24T04:06:07.094Z,101387.86
2018-05-24T04:08:39.009Z,101388.34
2018-05-24T04:11:10.556Z,101391.22
2018-05-24T04:13:42.451Z,101392.84
2018-05-24T04:16:13.952Z,101396.34
2018-05-24T04:18:45.963Z,101401.41
2018-05-24T04:21:17.779Z,101406.61
2018-05-24T04:23:49.957Z,101412.63
2018-05-24T04:28:20.340Z,101411.09
2018-05-24T04:33:06.362Z,101416.86
2018-05-24T04:35:37.959Z,101423.81
2018-05-24T04:38:09.989Z,101426.68
2018-05-24T04:40:42.479Z,101422.14
2018-05-24T04:43:13.982Z,101431.30
2018-05-24T04:45:45.439Z,101429.98
2018-05-24T04:48:55.720Z,101436.07
2018-05-24T04:53:56.309Z,101439.94
2018-05-24T04:56:27.946Z,101434.61
2018-05-24T04:58:59.559Z,101438.53
2018-05-24T05:01:31.127Z,101448.73
2018-05-24T05:04:03.113Z,101449.28
2018-05-24T05:06:34.549Z,101455.72
2018-05-24T05:09:06.563Z,101459.59
2018-05-24T05:13:23.516Z,101464.73
2018-05-24T05:15:55.475Z,101464.66
2018-05-24T05:18:27.147Z,101466.28
2018-05-24T05:20:59.439Z,101472.92
2018-05-24T05:23:31.002Z,101470.66
2018-05-24T05:26:03.082Z,101470.80
2018-05-24T05:28:34.775Z,101467.80
2018-05-24T05:31:06.464Z,101468.91
2018-05-24T05:33:37.999Z,101473.66
2018-05-24T05:38:23.200Z,101477.58
2018-05-24T05:40:54.975Z,101472.47
2018-05-24T05:43:27.047Z,101473.66
2018-05-24T05:45:58.579Z,101478.77
2018-05-24T05:48:30.440Z,101476.93
2018-05-24T05:51:02.359Z,101477.61
2018-05-24T05:53:33.968Z,101477.30
2018-05-24T05:56:06.463Z,101483.72
2018-05-24T05:58:38.023Z,101485.39
2018-05-24T06:01:09.826Z,101482.80
2018-05-24T06:03:41.555Z,101487.20
2018-05-24T06:06:13.075Z,101481.58
2018-05-24T06:08:45.300Z,101481.30
2018-05-24T06:11:17.265Z,101478.70
2018-05-24T06:13:48.996Z,101480.66
2018-05-24T06:16:20.586Z,101475.96
2018-05-24T06:18:52.092Z,101478.20
2018-05-24T06:21:23.563Z,101468.92
2018-05-24T06:23:55.590Z,101469.55
2018-05-24T06:26:27.272Z,101468.22
2018-05-24T06:28:58.611Z,101461.72
2018-05-24T06:31:30.411Z,101463.33
2018-05-24T06:34:02.080Z,101464.83
2018-05-24T06:36:34.944Z,101465.73
2018-05-24T06:39:06.805Z,101467.77
2018-05-24T06:41:37.344Z,101468.95
2018-05-24T06:44:10.960Z,101470.70
2018-05-24T06:46:43.216Z,101474.89
2018-05-24T06:49:14.986Z,101465.45
2018-05-24T06:51:46.798Z,101469.75
2018-05-24T06:54:18.580Z,101466.38
2018-05-24T06:56:50.444Z,101465.83
2018-05-24T06:59:22.407Z,101469.02
2018-05-24T07:01:55.004Z,101470.34
2018-05-24T07:04:28.527Z,101467.88
2018-05-24T07:07:01.076Z,101468.25
2018-05-24T07:10:58.992Z,101478.88
2018-05-24T07:13:31.490Z,101475.03
2018-05-24T07:16:04.221Z,101475.43
2018-05-24T07:18:36.443Z,101475.11
2018-05-24T07:21:09.256Z,101472.27
2018-05-24T07:23:41.935Z,101472.09
2018-05-24T07:26:15.545Z,101475.84
2018-05-24T07:28:47.556Z,101478.36
2018-05-24T07:31:20.860Z,101476.09
2018-05-24T07:33:54.406Z,101475.62
2018-05-24T07:36:26.497Z,101466.00
2018-05-24T07:38:59.068Z,101459.45
2018-05-24T07:41:32.398Z,101465.72
2018-05-24T07:44:09.777Z,101464.11
2018-05-24T07:46:54.243Z,101465.30
2018-05-24T07:49:30.754Z,101461.70
2018-05-24T07:53:28.214Z,101463.41
2018-05-24T07:56:00.602Z,101459.53
2018-05-24T07:58:33.558Z,101457.27
2018-05-24T08:01:05.928Z,101456.92
2018-05-24T08:03:39.267Z,101452.96
2018-05-24T08:12:12.411Z,101453.72
2018-05-24T08:14:44.916Z,101453.77
2018-05-24T08:17:17.538Z,101452.55
2018-05-24T08:21:31.391Z,101448.91
2018-05-24T08:24:04.537Z,101450.28
2018-05-24T08:26:37.530Z,101447.06
2018-05-24T08:29:10.480Z,101444.50
2018-05-24T08:31:43.220Z,101451.56
2018-05-24T08:34:16.327Z,101448.39
2018-05-24T08:36:50.023Z,101448.73
2018-05-24T08:39:21.559Z,101440.33
2018-05-24T08:41:54.420Z,101440.47
2018-05-24T08:46:20.253Z,101438.43
2018-05-24T08:48:52.394Z,101432.41
2018-05-24T08:51:24.260Z,101437.12
2018-05-24T08:53:57.328Z,101439.06
2018-05-24T08:56:30.406Z,101440.56
2018-05-24T08:59:02.940Z,101434.22
2018-05-24T09:01:36.328Z,101440.63
2018-05-24T09:04:09.095Z,101435.27
2018-05-24T09:06:41.511Z,101427.17
2018-05-24T09:09:14.483Z,101424.23
2018-05-24T09:11:46.758Z,101423.90
2018-05-24T09:14:19.421Z,101425.23
2018-05-24T09:16:52.411Z,101426.55
2018-05-24T09:20:56.157Z,101423.72
2018-05-24T09:23:29.337Z,101420.02
2018-05-24T09:26:01.482Z,101413.77
2018-05-24T09:28:34.240Z,101417.70
2018-05-24T09:31:06.750Z,101414.77
2018-05-24T09:33:40.339Z,101418.19
2018-05-24T09:36:13.491Z,101414.62
2018-05-24T09:38:47.795Z,101419.70
2018-05-24T09:41:20.995Z,101418.65
2018-05-24T09:43:53.967Z,101424.82
2018-05-24T09:48:08.475Z,101417.19
2018-05-24T09:50:40.958Z,101423.49
2018-05-24T09:53:14.149Z,101421.13
2018-05-24T09:55:47.551Z,101425.28
2018-05-24T09:58:20.584Z,101423.11
2018-05-24T10:01:48.451Z,101426.70
2018-05-24T10:04:21.339Z,101424.95
2018-05-24T10:06:55.338Z,101420.03
2018-05-24T10:09:27.422Z,101421.41
2018-05-24T10:12:00.414Z,101419.98
2018-05-24T10:14:33.710Z,101421.18
2018-05-24T10:17:07.131Z,101423.59
2018-05-24T10:19:40.233Z,101422.41
2018-05-24T10:22:12.680Z,101420.95
2018-05-24T10:24:46.243Z,101419.70
2018-05-24T10:27:19.341Z,101419.98
2018-05-24T10:29:51.664Z,101417.87
2018-05-24T10:32:24.629Z,101419.81
2018-05-24T10:34:58.044Z,101420.18
2018-05-24T10:37:30.474Z,101422.12
2018-05-24T10:40:03.006Z,101423.03
2018-05-24T10:42:35.450Z,101423.33
2018-05-24T10:45:08.539Z,101426.87
2018-05-24T10:47:41.825Z,101431.59
2018-05-24T10:50:14.468Z,101428.77
2018-05-24T10:52:46.711Z,101427.81
2018-05-24T10:57:35.564Z,101437.37
2018-05-24T11:00:08.059Z,101445.28
2018-05-24T11:02:40.827Z,101440.45
2018-05-24T11:05:13.652Z,101439.64
2018-05-24T11:07:47.498Z,101440.73
2018-05-24T11:10:20.080Z,101442.00
2018-05-24T11:12:52.415Z,101446.17
2018-05-24T11:15:25.602Z,101449.59
2018-05-24T11:17:58.752Z,101440.25
2018-05-24T11:20:31.415Z,101439.97
2018-05-24T11:23:03.901Z,101441.48
2018-05-24T11:26:45.288Z,101444.42
2018-05-24T11:29:18.898Z,101442.48
2018-05-24T11:31:51.605Z,101444.09
2018-05-24T11:34:25.476Z,101447.89
2018-05-24T11:36:59.258Z,101440.12
2018-05-24T11:39:32.426Z,101437.23
2018-05-24T11:42:05.247Z,101441.16
2018-05-24T11:44:38.685Z,101446.41
2018-05-24T11:47:12.541Z,101437.92
2018-05-24T11:49:46.245Z,101442.03
2018-05-24T11:52:18.415Z,101448.00
2018-05-24T11:54:51.079Z,101446.11
2018-05-24T11:57:24.086Z,101443.36
2018-05-24T11:59:56.489Z,101452.80
2018-05-24T12:02:29.354Z,101449.95
2018-05-24T12:05:01.355Z,101451.23
2018-05-24T12:07:34.572Z,101455.20
2018-05-24T12:11:46.226Z,101450.41
2018-05-24T12:14:19.327Z,101450.30
2018-05-24T12:16:51.591Z,101452.58
2018-05-24T12:19:24.625Z,101448.69
2018-05-24T12:21:57.619Z,101450.38
2018-05-24T12:24:30.763Z,101446.27
2018-05-24T12:27:03.492Z,101446.75
2018-05-24T12:29:36.557Z,101443.20
2018-05-24T12:32:09.550Z,101445.77
2018-05-24T12:34:42.523Z,101446.91
2018-05-24T12:37:16.236Z,101446.38
2018-05-24T12:39:48.436Z,101446.98
2018-05-24T12:42:21.337Z,101446.14
2018-05-24T12:44:54.514Z,101446.75
2018-05-24T12:47:27.329Z,101453.91
2018-05-24T12:49:59.820Z,101453.24
2018-05-24T12:52:32.495Z,101451.81
2018-05-24T12:55:05.337Z,101448.21
2018-05-24T12:57:38.645Z,101450.80
2018-05-24T13:00:11.614Z,101447.02
2018-05-24T13:02:44.452Z,101455.15
2018-05-24T13:05:16.957Z,101459.66
2018-05-24T13:07:50.447Z,101459.42
2018-05-24T13:10:24.455Z,101463.31
2018-05-24T13:12:56.973Z,101458.67
2018-05-24T13:15:29.951Z,101459.20
2018-05-24T13:18:02.577Z,101460.95
2018-05-24T13:20:35.410Z,101464.64
2018-05-24T13:23:08.430Z,101462.17
2018-05-24T13:25:41.409Z,101467.77
2018-05-24T13:28:13.341Z,101468.42
2018-05-24T13:30:45.272Z,101474.33
2018-05-24T13:33:17.257Z,101477.70
2018-05-24T13:35:49.545Z,101478.91
2018-05-24T13:38:22.250Z,101482.84
2018-05-24T13:40:54.952Z,101486.95
2018-05-24T13:43:29.398Z,101488.80
2018-05-24T13:46:01.801Z,101483.97
2018-05-24T13:48:34.959Z,101485.98
2018-05-24T13:51:07.421Z,101489.16
2018-05-24T13:53:39.971Z,101495.12
2018-05-24T13:56:12.467Z,101496.52
2018-05-24T13:58:45.341Z,101494.95
2018-05-24T14:01:20.642Z,101495.52
2018-05-24T14:05:13.947Z,101504.72
2018-05-24T14:07:46.957Z,101507.23
2018-05-24T14:10:19.514Z,101507.34
2018-05-24T14:12:52.653Z,101512.78
2018-05-24T14:15:25.490Z,101513.09
2018-05-24T14:17:58.627Z,101519.17
2018-05-24T14:20:31.639Z,101521.44
2018-05-24T14:23:04.481Z,101520.17
2018-05-24T14:25:37.612Z,101524.74
2018-05-24T14:28:10.590Z,101523.89
2018-05-24T14:30:43.688Z,101529.70
2018-05-24T14:33:16.759Z,101527.30
2018-05-24T14:35:49.556Z,101529.09
2018-05-24T14:38:21.933Z,101531.55
2018-05-24T14:40:54.561Z,101534.38
2018-05-24T14:43:27.471Z,101533.55
2018-05-24T14:45:59.619Z,101541.29
2018-05-24T14:48:32.720Z,101539.84
2018-05-24T14:51:05.438Z,101543.02
2018-05-24T14:53:39.034Z,101538.62
2018-05-24T14:56:12.648Z,101539.47
2018-05-24T14:58:45.566Z,101549.55
2018-05-24T15:01:18.417Z,101551.91
2018-05-24T15:03:51.609Z,101549.94
2018-05-24T15:06:24.444Z,101552.94
2018-05-24T15:08:57.365Z,101554.31
2018-05-24T15:11:30.718Z,101551.88
2018-05-24T15:14:04.760Z,101564.41
2018-05-24T15:16:38.482Z,101558.77
2018-05-24T15:19:11.785Z,101563.83
2018-05-24T15:21:44.618Z,101566.33
2018-05-24T15:24:17.446Z,101566.42
2018-05-24T15:26:50.428Z,101560.88
2018-05-24T15:29:23.734Z,101568.78
2018-05-24T15:31:57.127Z,101578.63
2018-05-24T15:34:30.411Z,101583.57
2018-05-24T15:37:03.131Z,101585.32
2018-05-24T15:39:36.090Z,101587.72
2018-05-24T15:42:09.091Z,101598.53
2018-05-24T15:44:42.688Z,101592.95
2018-05-24T15:47:16.129Z,101597.53
2018-05-24T15:49:49.456Z,101591.71
2018-05-24T15:52:23.647Z,101588.51
2018-05-24T15:54:56.475Z,101591.11
2018-05-24T15:57:29.495Z,101593.53
2018-05-24T16:00:02.868Z,101591.69
2018-05-24T16:02:36.494Z,101597.03
2018-05-24T16:05:09.527Z,101593.44
2018-05-24T16:07:42.651Z,101595.91
2018-05-24T16:10:16.512Z,101597.66
2018-05-24T16:12:49.942Z,101603.19
2018-05-24T16:15:23.053Z,101599.69
2018-05-24T16:17:56.084Z,101595.28
2018-05-24T16:20:29.603Z,101594.77
2018-05-24T16:23:02.826Z,101602.76
2018-05-24T16:25:36.448Z,101599.55
2018-05-24T16:28:09.626Z,101605.35
2018-05-24T16:30:42.614Z,101608.68
2018-05-24T16:33:15.538Z,101614.58
2018-05-24T16:35:48.770Z,101612.48
2018-05-24T16:38:22.425Z,101612.95
2018-05-24T16:40:55.429Z,101612.73
2018-05-24T16:43:28.358Z,101610.63
2018-05-24T16:46:01.401Z,101608.16
2018-05-24T16:48:34.580Z,101605.08
2018-05-24T16:51:08.494Z,101601.78
2018-05-24T16:53:41.402Z,101600.14
2018-05-24T16:56:15.035Z,101597.27
2018-05-24T16:58:48.407Z,101594.06
2018-05-24T17:01:21.547Z,101593.59
2018-05-24T17:03:54.550Z,101590.86
2018-05-24T17:06:27.346Z,101592.25
2018-05-24T17:09:00.851Z,101593.11
2018-05-24T17:11:32.646Z,101590.77
2018-05-24T17:14:05.596Z,101587.69
2018-05-24T17:16:38.686Z,101591.01
2018-05-24T17:19:12.655Z,101586.30
2018-05-24T17:21:45.819Z,101591.48
2018-05-24T17:24:19.323Z,101596.13
2018-05-24T17:26:52.253Z,101595.45
2018-05-24T17:29:25.032Z,101594.55
2018-05-24T17:31:57.954Z,101601.38
2018-05-24T17:34:30.447Z,101600.29
2018-05-24T17:37:03.263Z,101600.77
2018-05-24T17:39:36.161Z,101602.01
2018-05-24T17:42:08.971Z,101608.77
2018-05-24T17:44:42.233Z,101608.30
2018-05-24T17:47:14.922Z,101605.33
2018-05-24T17:49:48.426Z,101608.42
2018-05-24T17:52:21.186Z,101605.80
2018-05-24T17:54:54.034Z,101606.06
2018-05-24T17:57:26.507Z,101611.19
2018-05-24T17:59:59.629Z,101613.70
2018-05-24T18:02:32.607Z,101607.19
2018-05-24T18:05:05.560Z,101603.95
2018-05-24T18:07:39.272Z,101618.88
2018-05-24T18:10:11.422Z,101615.43
2018-05-24T18:12:44.423Z,101624.39
2018-05-24T18:15:17.406Z,101626.87
2018-05-24T18:17:50.579Z,101634.27
2018-05-24T18:20:24.324Z,101632.46
2018-05-24T18:22:56.425Z,101633.45
2018-05-24T18:25:29.205Z,101634.02
2018-05-24T18:28:02.675Z,101632.22
2018-05-24T18:30:35.425Z,101635.11
2018-05-24T18:33:08.066Z,101635.78
2018-05-24T18:35:41.516Z,101633.37
2018-05-24T18:38:14.647Z,101643.00
2018-05-24T18:40:47.962Z,101641.97
2018-05-24T18:43:20.068Z,101639.64
2018-05-24T18:45:53.421Z,101639.80
2018-05-24T18:48:26.060Z,101643.12
2018-05-24T18:50:59.052Z,101640.20
2018-05-24T18:53:32.611Z,101642.00
2018-05-24T18:56:05.353Z,101630.17
2018-05-24T18:58:38.571Z,101632.59
2018-05-24T19:01:11.262Z,101632.22
2018-05-24T19:03:44.493Z,101632.27
2018-05-24T19:06:17.719Z,101641.31
2018-05-24T19:08:52.975Z,101649.95
2018-05-24T19:11:26.162Z,101651.00
2018-05-24T19:13:58.922Z,101647.53
2018-05-24T19:16:32.588Z,101640.66
2018-05-24T19:19:06.123Z,101639.38
2018-05-24T19:21:39.348Z,101641.55
2018-05-24T19:24:12.413Z,101638.53
2018-05-24T19:26:44.902Z,101638.00
2018-05-24T19:29:17.400Z,101638.63
2018-05-24T19:31:50.090Z,101638.58
2018-05-24T19:34:24.524Z,101640.47
2018-05-24T19:36:57.027Z,101643.60
2018-05-24T19:39:29.980Z,101638.23
2018-05-24T19:42:03.030Z,101642.80
2018-05-24T19:44:36.340Z,101643.14
2018-05-24T19:47:09.009Z,101644.80
2018-05-24T19:49:43.395Z,101649.48
2018-05-24T19:52:17.318Z,101650.06
2018-05-24T19:54:50.994Z,101651.77
2018-05-24T19:57:24.606Z,101653.15
2018-05-24T19:59:57.008Z,101644.42
2018-05-24T20:02:30.285Z,101640.48
2018-05-24T20:05:03.536Z,101640.86
2018-05-24T20:07:36.587Z,101637.16
2018-05-24T20:10:08.252Z,101633.19
2018-05-24T20:12:41.219Z,101628.64
2018-05-24T20:15:15.535Z,101633.53
2018-05-24T20:17:48.535Z,101629.63
2018-05-24T20:20:20.087Z,101629.55
2018-05-24T20:22:53.704Z,101630.72
2018-05-24T20:25:27.550Z,101623.55
2018-05-24T20:28:00.692Z,101614.97
2018-05-24T20:30:33.007Z,101623.65
2018-05-24T20:33:06.397Z,101614.17
2018-05-24T20:35:39.327Z,101621.14
2018-05-24T20:38:11.927Z,101622.70
2018-05-24T20:40:44.957Z,101614.02
2018-05-24T20:43:18.622Z,101607.05
2018-05-24T20:45:51.327Z,101595.20
2018-05-24T20:48:23.926Z,101601.82
2018-05-24T20:50:57.579Z,101599.69
2018-05-24T20:53:30.532Z,101596.84
2018-05-24T20:56:04.513Z,101590.70
2018-05-24T20:58:37.230Z,101586.05
2018-05-24T21:01:10.756Z,101585.22
2018-05-24T21:03:44.007Z,101590.48
2018-05-24T21:06:17.411Z,101588.47
2018-05-24T21:08:50.600Z,101590.23
2018-05-24T21:11:23.538Z,101582.31
2018-05-24T21:13:56.455Z,101587.97
2018-05-24T21:16:29.672Z,101586.89
2018-05-24T21:19:03.111Z,101581.23
2018-05-24T21:21:35.948Z,101573.34
2018-05-24T21:24:08.438Z,101581.46
2018-05-24T21:26:41.623Z,101583.50
2018-05-24T21:29:14.670Z,101582.87
2018-05-24T21:34:00.410Z,101588.33
2018-05-24T21:36:33.538Z,101584.95
2018-05-24T21:39:06.547Z,101582.41
2018-05-24T21:41:39.328Z,101578.61
2018-05-24T21:44:12.402Z,101582.28
2018-05-24T21:46:45.068Z,101576.80
2018-05-24T21:50:28.099Z,101578.13
2018-05-24T21:53:00.964Z,101575.81
2018-05-24T21:55:34.410Z,101579.89
2018-05-24T21:58:07.401Z,101575.64
2018-05-24T22:00:40.418Z,101582.03
2018-05-24T22:03:13.451Z,101585.41
2018-05-24T22:05:46.582Z,101592.95
2018-05-24T22:08:19.529Z,101591.25
2018-05-24T22:10:52.620Z,101589.73
2018-05-24T22:13:25.611Z,101585.34
2018-05-24T22:15:58.041Z,101585.56
2018-05-24T22:19:28.695Z,101582.84
2018-05-24T22:22:00.256Z,101581.03
2018-05-24T22:24:31.963Z,101580.86
2018-05-24T22:27:04.044Z,101573.52
2018-05-24T22:29:36.578Z,101575.89
2018-05-24T22:32:09.609Z,101571.70
2018-05-24T22:34:43.416Z,101573.68
2018-05-24T22:37:16.438Z,101575.49
2018-05-24T22:39:47.927Z,101581.18
2018-05-24T22:42:19.773Z,101576.62
2018-05-24T22:44:51.550Z,101573.00
2018-05-24T22:47:23.477Z,101568.53
2018-05-24T22:49:55.066Z,101571.09
2018-05-24T22:52:26.784Z,101574.27
2018-05-24T22:54:58.437Z,101566.13
2018-05-24T22:57:29.895Z,101566.81
2018-05-24T23:00:01.433Z,101568.63
2018-05-24T23:02:32.980Z,101570.50
2018-05-24T23:05:05.003Z,101569.48
2018-05-24T23:07:36.563Z,101572.48
2018-05-24T23:10:07.967Z,101574.28
2018-05-24T23:12:39.692Z,101575.08
2018-05-24T23:15:12.249Z,101572.90
2018-05-24T23:17:43.999Z,101572.20
2018-05-24T23:20:15.660Z,101572.82
2018-05-24T23:22:47.397Z,101569.99
2018-05-24T23:25:20.771Z,101576.42
2018-05-24T23:27:52.459Z,101576.56
2018-05-24T23:32:47.504Z,101567.55
2018-05-24T23:35:19.441Z,101562.78
2018-05-24T23:37:50.969Z,101555.87
2018-05-24T23:40:22.957Z,101552.67
2018-05-24T23:42:54.538Z,101550.80
2018-05-24T23:45:26.944Z,101547.30
2018-05-24T23:49:38.445Z,101546.04
2018-05-24T23:52:10.409Z,101547.96
2018-05-24T23:54:42.427Z,101548.19
2018-05-24T23:57:13.934Z,101554.63
2018-05-24T23:59:45.542Z,101545.23
